Time;durP1;ratioP1;P1;durP2;ratioP2;P2;SDS_P1;SDS_P2;PMS_P1;PMS_P2;Temp;Humidity;BMP_temperature;BMP_pressure;BME280_temperature;BME280_humidity;BME280_pressure;Samples;Min_cycle;Max_cycle;Signal;HPM_P1;HPM_P2
2022/05/28 00:03:59;;;;;;;;;;;18.20;56.60;;;;;;20834364;28;19915;-74
2022/05/28 00:14:00;;;;;;;;;;;18.30;56.70;;;;;;20817346;28;19917;-73
2022/05/28 00:24:00;;;;;;;;;;;18.20;56.70;;;;;;20816780;28;19912;-73
2022/05/28 00:34:01;;;;;;;;;;;18.20;56.70;;;;;;20900770;28;19921;-74
2022/05/28 00:44:03;;;;;;;;;;;18.20;57.10;;;;;;20866936;28;20453;-74
2022/05/28 00:54:04;;;;;;;;;;;18.20;56.80;;;;;;20883256;28;19917;-73
2022/05/28 01:04:21;;;;;;;;;;;18.20;56.90;;;;;;20899318;28;19913;-75
2022/05/28 01:14:23;;;;;;;;;;;18.10;56.80;;;;;;20897588;28;19916;-73
2022/05/28 01:24:27;;;;;;;;;;;18.30;56.90;;;;;;20896678;28;19913;-73
2022/05/28 01:34:28;;;;;;;;;;;18.20;56.80;;;;;;20879857;28;20015;-72
2022/05/28 01:44:29;;;;;;;;;;;18.10;56.80;;;;;;20895310;28;20321;-73
2022/05/28 01:54:32;;;;;;;;;;;18.10;56.80;;;;;;20877848;28;20543;-73
2022/05/28 02:04:32;;;;;;;;;;;18.10;56.70;;;;;;20877816;28;19912;-73
2022/05/28 02:14:33;;;;;;;;;;;18.10;56.70;;;;;;20816699;28;19917;-73
2022/05/28 02:24:35;;;;;;;;;;;18.00;56.60;;;;;;20810578;28;19913;-73
2022/05/28 02:34:36;;;;;;;;;;;17.90;56.60;;;;;;20778400;28;19921;-73
2022/05/28 02:44:36;;;;;;;;;;;18.00;56.60;;;;;;20809831;28;20012;-73
2022/05/28 02:54:37;;;;;;;;;;;18.00;56.60;;;;;;20807341;28;19924;-73
2022/05/28 03:04:37;;;;;;;;;;;18.00;56.60;;;;;;20823893;28;20411;-76
2022/05/28 03:14:38;;;;;;;;;;;17.90;56.60;;;;;;20789995;28;19917;-74
2022/05/28 03:24:38;;;;;;;;;;;18.00;56.70;;;;;;20806771;28;19913;-73
2022/05/28 03:34:39;;;;;;;;;;;17.90;56.60;;;;;;20789103;28;19924;-73
2022/05/28 03:44:39;;;;;;;;;;;17.90;56.60;;;;;;20810966;28;19908;-73
2022/05/28 03:54:43;;;;;;;;;;;17.80;56.50;;;;;;20821502;28;19924;-73
2022/05/28 04:04:44;;;;;;;;;;;17.90;56.60;;;;;;20802820;28;20379;-73
2022/05/28 04:14:44;;;;;;;;;;;17.80;56.60;;;;;;20803431;28;20008;-73
2022/05/28 04:24:45;;;;;;;;;;;17.80;56.70;;;;;;20819035;28;19924;-73
2022/05/28 04:34:45;;;;;;;;;;;17.80;56.70;;;;;;20838210;28;19996;-73
2022/05/28 04:44:46;;;;;;;;;;;17.80;56.80;;;;;;20835964;28;20333;-73
2022/05/28 04:54:46;;;;;;;;;;;17.80;56.80;;;;;;20814456;28;19932;-76
2022/05/28 05:04:47;;;;;;;;;;;17.80;56.80;;;;;;20816248;28;19916;-74
2022/05/28 05:14:47;;;;;;;;;;;17.70;56.80;;;;;;20832185;28;19916;-74
2022/05/28 05:24:48;;;;;;;;;;;17.70;56.90;;;;;;20797560;28;19913;-72
2022/05/28 05:34:48;;;;;;;;;;;17.70;56.90;;;;;;20798876;28;19931;-75
2022/05/28 05:44:49;;;;;;;;;;;17.70;56.90;;;;;;20794704;28;19909;-73
2022/05/28 05:54:49;;;;;;;;;;;17.70;56.90;;;;;;20792995;28;19917;-74
2022/05/28 06:04:50;;;;;;;;;;;17.80;57.00;;;;;;20775693;28;19963;-70
2022/05/28 06:14:50;;;;;;;;;;;17.70;57.60;;;;;;20810359;28;20435;-77
2022/05/28 06:24:51;;;;;;;;;;;17.70;56.90;;;;;;20791836;28;19924;-74
2022/05/28 06:34:51;;;;;;;;;;;17.60;56.80;;;;;;20793493;28;19917;-79
2022/05/28 06:44:55;;;;;;;;;;;17.60;56.70;;;;;;20791561;28;19909;-77
2022/05/28 06:54:55;;;;;;;;;;;17.60;56.60;;;;;;20790654;28;19921;-77
2022/05/28 07:04:56;;;;;;;;;;;17.60;56.60;;;;;;20824932;28;19923;-77
2022/05/28 07:15:00;;;;;;;;;;;17.60;56.60;;;;;;20785233;28;19948;-75
2022/05/28 07:25:00;;;;;;;;;;;17.50;56.50;;;;;;21170332;22;20269;-70
2022/05/28 07:35:01;;;;;;;;;;;17.60;56.60;;;;;;20800506;28;20015;-74
2022/05/28 07:45:03;;;;;;;;;;;17.60;56.60;;;;;;20778500;28;19913;-73
2022/05/28 07:55:04;;;;;;;;;;;17.50;56.70;;;;;;20817810;28;20016;-73
2022/05/28 08:05:05;;;;;;;;;;;17.40;56.90;;;;;;20808166;28;20319;-72
2022/05/28 08:15:06;;;;;;;;;;;17.30;56.90;;;;;;20802295;28;20284;-72
2022/05/28 08:25:07;;;;;;;;;;;17.20;56.60;;;;;;20798319;28;20000;-74
2022/05/28 08:35:07;;;;;;;;;;;17.10;56.40;;;;;;20828129;28;20051;-74
2022/05/28 08:45:08;;;;;;;;;;;17.20;56.30;;;;;;20811261;28;19909;-75
2022/05/28 08:55:10;;;;;;;;;;;17.20;56.90;;;;;;20811270;28;19920;-72
2022/05/28 09:05:15;;;;;;;;;;;16.80;55.60;;;;;;20812478;28;19913;-73
2022/05/28 09:15:16;;;;;;;;;;;15.70;57.80;;;;;;20812888;28;20376;-73
2022/05/28 09:25:17;;;;;;;;;;;14.80;59.30;;;;;;20838203;28;19967;-78
2022/05/28 09:35:37;;;;;;;;;;;14.80;61.00;;;;;;20783179;28;19924;-86
2022/05/28 09:45:43;;;;;;;;;;;15.10;62.00;;;;;;20822471;28;19909;-79
2022/05/28 09:55:54;;;;;;;;;;;15.50;63.00;;;;;;20797521;28;19917;-82
2022/05/28 10:05:55;;;;;;;;;;;15.90;63.90;;;;;;20832561;28;20051;-77
2022/05/28 10:15:56;;;;;;;;;;;16.20;63.40;;;;;;20794467;28;19964;-74
2022/05/28 10:25:57;;;;;;;;;;;16.20;63.00;;;;;;20748051;28;19917;-75
2022/05/28 10:36:04;;;;;;;;;;;16.30;62.70;;;;;;20810603;28;20069;-77
2022/05/28 10:46:12;;;;;;;;;;;16.40;62.30;;;;;;20711048;28;19913;-78
2022/05/28 10:56:27;;;;;;;;;;;16.40;61.90;;;;;;20745433;28;19944;-79
2022/05/28 11:06:34;;;;;;;;;;;16.50;61.50;;;;;;20821345;28;19970;-76
2022/05/28 11:16:47;;;;;;;;;;;16.60;61.60;;;;;;20789203;28;19940;-75
2022/05/28 11:26:53;;;;;;;;;;;16.70;61.70;;;;;;20805119;28;19913;-75
2022/05/28 11:36:56;;;;;;;;;;;16.60;62.80;;;;;;20803958;28;19967;-76
2022/05/28 11:47:02;;;;;;;;;;;16.70;62.90;;;;;;20788290;28;19917;-74
2022/05/28 11:57:04;;;;;;;;;;;16.70;62.80;;;;;;20821726;28;19917;-75
2022/05/28 12:07:23;;;;;;;;;;;16.70;62.30;;;;;;20806695;28;19913;-76
2022/05/28 12:17:24;;;;;;;;;;;16.80;61.50;;;;;;20756064;28;20390;-78
2022/05/28 12:27:34;;;;;;;;;;;16.80;60.60;;;;;;20818222;28;19913;-83
2022/05/28 12:37:34;;;;;;;;;;;16.80;60.00;;;;;;20816178;28;19931;-78
2022/05/28 12:47:34;;;;;;;;;;;16.80;59.20;;;;;;20832013;28;19912;-85
2022/05/28 12:57:35;;;;;;;;;;;16.90;58.80;;;;;;20799704;28;20332;-77
2022/05/28 13:07:42;;;;;;;;;;;16.90;58.70;;;;;;20803162;28;19919;-78
2022/05/28 13:18:01;;;;;;;;;;;17.00;58.40;;;;;;20817431;28;19917;-78
2022/05/28 13:28:31;;;;;;;;;;;17.00;57.90;;;;;;20819561;28;19913;-79
2022/05/28 13:38:43;;;;;;;;;;;17.00;57.40;;;;;;20809613;28;19967;-77
2022/05/28 13:48:48;;;;;;;;;;;17.00;56.90;;;;;;20815531;28;19909;-78
2022/05/28 13:58:48;;;;;;;;;;;17.10;56.70;;;;;;20800415;28;19917;-79
2022/05/28 14:08:49;;;;;;;;;;;17.10;56.60;;;;;;20815141;28;19909;-78
2022/05/28 14:18:50;;;;;;;;;;;17.00;56.70;;;;;;20859673;23;19921;-79
2022/05/28 14:28:51;;;;;;;;;;;17.00;56.70;;;;;;20794960;28;20057;-81
2022/05/28 14:38:52;;;;;;;;;;;17.00;56.50;;;;;;20777674;28;19919;-81
2022/05/28 14:49:04;;;;;;;;;;;17.10;56.20;;;;;;20791444;28;19951;-81
2022/05/28 14:59:05;;;;;;;;;;;17.10;55.60;;;;;;20791819;28;19920;-81
2022/05/28 15:09:16;;;;;;;;;;;17.20;54.60;;;;;;20790428;28;20360;-79
2022/05/28 15:19:17;;;;;;;;;;;17.30;54.40;;;;;;20790846;28;19971;-79
2022/05/28 15:29:17;;;;;;;;;;;17.30;54.30;;;;;;20805335;28;19905;-80
2022/05/28 15:39:18;;;;;;;;;;;17.30;53.30;;;;;;20792612;28;19913;-79
2022/05/28 15:49:18;;;;;;;;;;;17.40;53.10;;;;;;20804940;28;19905;-77
2022/05/28 15:59:20;;;;;;;;;;;17.40;53.30;;;;;;20804170;28;19920;-75
2022/05/28 16:09:20;;;;;;;;;;;17.40;53.00;;;;;;20803491;28;20300;-79
2022/05/28 16:19:21;;;;;;;;;;;17.30;52.90;;;;;;20756547;28;19971;-81
2022/05/28 16:29:22;;;;;;;;;;;17.20;52.90;;;;;;20739963;28;20300;-81
2022/05/28 16:39:22;;;;;;;;;;;17.20;52.90;;;;;;20703422;28;20233;-84
2022/05/28 16:49:23;;;;;;;;;;;17.30;53.00;;;;;;20751527;28;19956;-80
2022/05/28 16:59:26;;;;;;;;;;;17.40;53.30;;;;;;20734401;28;19967;-79
2022/05/28 17:09:27;;;;;;;;;;;17.40;53.40;;;;;;20734266;28;19948;-79
2022/05/28 17:19:28;;;;;;;;;;;17.40;53.40;;;;;;20734754;28;19913;-79
2022/05/28 17:29:29;;;;;;;;;;;17.30;53.30;;;;;;20751097;28;19910;-80
2022/05/28 17:39:30;;;;;;;;;;;17.30;53.40;;;;;;20730732;28;19925;-74
2022/05/28 17:49:31;;;;;;;;;;;17.40;53.60;;;;;;20696514;28;19920;-86
2022/05/28 17:59:32;;;;;;;;;;;17.40;53.60;;;;;;20729322;28;19917;-77
2022/05/28 18:09:32;;;;;;;;;;;17.40;53.70;;;;;;20733406;28;20007;-77
2022/05/28 18:19:33;;;;;;;;;;;17.40;54.20;;;;;;20710118;28;19917;-77
2022/05/28 18:29:33;;;;;;;;;;;17.40;53.70;;;;;;20726853;28;20273;-73
2022/05/28 18:39:35;;;;;;;;;;;17.30;53.70;;;;;;20744694;28;19917;-75
2022/05/28 18:49:35;;;;;;;;;;;17.20;53.70;;;;;;20787032;28;19909;-74
2022/05/28 18:59:36;;;;;;;;;;;17.20;53.70;;;;;;20707918;28;19918;-74
2022/05/28 19:09:46;;;;;;;;;;;17.20;53.70;;;;;;20708544;28;19941;-77
2022/05/28 19:19:47;;;;;;;;;;;17.20;53.80;;;;;;20704227;28;19917;-77
2022/05/28 19:29:51;;;;;;;;;;;17.20;53.90;;;;;;20736360;28;19909;-77
2022/05/28 19:39:53;;;;;;;;;;;17.10;53.90;;;;;;20720431;28;19925;-77
2022/05/28 19:49:54;;;;;;;;;;;17.10;53.90;;;;;;20738094;28;19909;-77
2022/05/28 19:59:55;;;;;;;;;;;17.20;54.00;;;;;;20719682;28;19924;-77
2022/05/28 20:09:55;;;;;;;;;;;17.10;54.00;;;;;;20741951;28;19945;-78
2022/05/28 20:19:56;;;;;;;;;;;17.10;54.10;;;;;;20736605;28;20361;-77
2022/05/28 20:30:01;;;;;;;;;;;17.10;54.20;;;;;;20728981;28;19920;-78
2022/05/28 20:40:01;;;;;;;;;;;17.10;54.30;;;;;;20734084;28;19921;-77
2022/05/28 20:50:02;;;;;;;;;;;17.10;54.40;;;;;;20750309;28;20079;-76
2022/05/28 21:00:04;;;;;;;;;;;17.00;54.50;;;;;;20715424;28;19932;-76
2022/05/28 21:10:05;;;;;;;;;;;17.00;54.60;;;;;;20730143;28;19936;-76
2022/05/28 21:20:05;;;;;;;;;;;17.00;54.70;;;;;;20731465;28;19921;-77
2022/05/28 21:30:07;;;;;;;;;;;17.00;54.80;;;;;;20713269;28;20361;-77
2022/05/28 21:40:08;;;;;;;;;;;17.00;54.80;;;;;;20743423;28;20567;-77
2022/05/28 21:50:09;;;;;;;;;;;17.00;54.90;;;;;;20683062;28;19941;-76
2022/05/28 22:00:30;;;;;;;;;;;17.00;55.00;;;;;;20741193;28;19960;-79
2022/05/28 22:10:31;;;;;;;;;;;17.00;55.10;;;;;;20700749;28;19913;-77
2022/05/28 22:20:32;;;;;;;;;;;17.00;55.10;;;;;;20711893;28;19921;-77
2022/05/28 22:30:32;;;;;;;;;;;17.00;55.20;;;;;;20709654;28;19909;-77
2022/05/28 22:40:33;;;;;;;;;;;17.00;55.30;;;;;;20767337;28;20022;-77
2022/05/28 22:50:35;;;;;;;;;;;17.00;55.40;;;;;;20789123;28;19915;-78
2022/05/28 23:00:36;;;;;;;;;;;16.90;55.50;;;;;;20821480;28;19921;-77
2022/05/28 23:10:37;;;;;;;;;;;16.90;55.60;;;;;;20805071;28;19909;-77
2022/05/28 23:20:37;;;;;;;;;;;17.00;55.80;;;;;;20787862;28;20358;-77
2022/05/28 23:30:38;;;;;;;;;;;17.00;55.80;;;;;;20805165;28;19909;-79
2022/05/28 23:40:38;;;;;;;;;;;17.00;56.00;;;;;;20803811;28;20288;-77
2022/05/28 23:50:39;;;;;;;;;;;16.90;56.00;;;;;;20803647;28;19909;-77
